sensor_id;sensor_type;location;lat;lon;timestamp;P1;durP1;ratioP1;P2;durP2;ratioP2
6414;SDS011;3240;48.790;9.210;2023-04-29T00:02:07;2.70;;;1.60;;
6414;SDS011;3240;48.790;9.210;2023-04-29T00:04:36;1.60;;;1.50;;
6414;SDS011;3240;48.790;9.210;2023-04-29T00:07:04;3.43;;;1.27;;
6414;SDS011;3240;48.790;9.210;2023-04-29T00:09:32;2.17;;;1.40;;
6414;SDS011;3240;48.790;9.210;2023-04-29T00:12:01;1.90;;;1.30;;
6414;SDS011;3240;48.790;9.210;2023-04-29T00:14:29;2.70;;;1.10;;
6414;SDS011;3240;48.790;9.210;2023-04-29T00:16:57;1.77;;;1.33;;
6414;SDS011;3240;48.790;9.210;2023-04-29T00:19:26;1.30;;;1.20;;
6414;SDS011;3240;48.790;9.210;2023-04-29T00:21:54;2.35;;;1.50;;
6414;SDS011;3240;48.790;9.210;2023-04-29T00:24:22;1.80;;;1.50;;
6414;SDS011;3240;48.790;9.210;2023-04-29T00:26:51;2.50;;;1.50;;
6414;SDS011;3240;48.790;9.210;2023-04-29T00:29:19;2.13;;;1.60;;
6414;SDS011;3240;48.790;9.210;2023-04-29T00:31:47;2.63;;;1.10;;
6414;SDS011;3240;48.790;9.210;2023-04-29T00:34:16;1.63;;;1.53;;
6414;SDS011;3240;48.790;9.210;2023-04-29T00:36:44;2.87;;;1.57;;
6414;SDS011;3240;48.790;9.210;2023-04-29T00:39:12;2.20;;;1.47;;
6414;SDS011;3240;48.790;9.210;2023-04-29T00:41:41;2.37;;;1.07;;
6414;SDS011;3240;48.790;9.210;2023-04-29T00:44:09;1.60;;;1.50;;
6414;SDS011;3240;48.790;9.210;2023-04-29T00:46:37;1.50;;;1.30;;
6414;SDS011;3240;48.790;9.210;2023-04-29T00:49:06;2.03;;;1.30;;
6414;SDS011;3240;48.790;9.210;2023-04-29T00:51:34;3.37;;;1.27;;
6414;SDS011;3240;48.790;9.210;2023-04-29T00:54:03;1.97;;;1.30;;
6414;SDS011;3240;48.790;9.210;2023-04-29T00:56:32;2.47;;;1.23;;
6414;SDS011;3240;48.790;9.210;2023-04-29T00:59:00;2.23;;;1.40;;
6414;SDS011;3240;48.790;9.210;2023-04-29T01:01:28;2.00;;;1.40;;
6414;SDS011;3240;48.790;9.210;2023-04-29T01:03:57;1.67;;;1.20;;
6414;SDS011;3240;48.790;9.210;2023-04-29T01:06:27;2.57;;;1.57;;
6414;SDS011;3240;48.790;9.210;2023-04-29T01:09:03;2.10;;;1.37;;
6414;SDS011;3240;48.790;9.210;2023-04-29T01:11:25;1.33;;;1.17;;
6414;SDS011;3240;48.790;9.210;2023-04-29T01:13:54;1.57;;;1.10;;
6414;SDS011;3240;48.790;9.210;2023-04-29T01:16:24;1.17;;;1.07;;
6414;SDS011;3240;48.790;9.210;2023-04-29T01:18:53;1.30;;;1.13;;
6414;SDS011;3240;48.790;9.210;2023-04-29T01:21:23;1.97;;;1.20;;
6414;SDS011;3240;48.790;9.210;2023-04-29T01:23:51;1.77;;;1.20;;
6414;SDS011;3240;48.790;9.210;2023-04-29T01:26:20;2.23;;;1.10;;
6414;SDS011;3240;48.790;9.210;2023-04-29T01:28:53;1.50;;;1.40;;
6414;SDS011;3240;48.790;9.210;2023-04-29T01:31:30;1.90;;;1.13;;
6414;SDS011;3240;48.790;9.210;2023-04-29T01:35:09;1.40;;;1.23;;
6414;SDS011;3240;48.790;9.210;2023-04-29T01:39:44;4.57;;;1.20;;
6414;SDS011;3240;48.790;9.210;2023-04-29T01:42:09;1.75;;;1.27;;
6414;SDS011;3240;48.790;9.210;2023-04-29T01:44:33;1.37;;;1.27;;
6414;SDS011;3240;48.790;9.210;2023-04-29T01:47:02;2.10;;;1.20;;
6414;SDS011;3240;48.790;9.210;2023-04-29T01:49:32;1.33;;;1.00;;
6414;SDS011;3240;48.790;9.210;2023-04-29T01:51:58;1.43;;;1.33;;
6414;SDS011;3240;48.790;9.210;2023-04-29T01:54:27;1.67;;;1.20;;
6414;SDS011;3240;48.790;9.210;2023-04-29T01:56:55;2.30;;;1.50;;
6414;SDS011;3240;48.790;9.210;2023-04-29T01:59:23;1.30;;;1.00;;
6414;SDS011;3240;48.790;9.210;2023-04-29T02:01:52;2.40;;;1.10;;
6414;SDS011;3240;48.790;9.210;2023-04-29T02:04:20;2.93;;;1.10;;
6414;SDS011;3240;48.790;9.210;2023-04-29T02:06:48;1.00;;;0.90;;
6414;SDS011;3240;48.790;9.210;2023-04-29T02:09:17;1.40;;;1.03;;
6414;SDS011;3240;48.790;9.210;2023-04-29T02:11:45;0.97;;;0.87;;
6414;SDS011;3240;48.790;9.210;2023-04-29T02:14:13;1.70;;;1.10;;
6414;SDS011;3240;48.790;9.210;2023-04-29T02:16:43;1.57;;;1.30;;
6414;SDS011;3240;48.790;9.210;2023-04-29T02:19:11;2.10;;;1.13;;
6414;SDS011;3240;48.790;9.210;2023-04-29T02:21:39;1.50;;;1.10;;
6414;SDS011;3240;48.790;9.210;2023-04-29T02:24:07;1.23;;;1.13;;
6414;SDS011;3240;48.790;9.210;2023-04-29T02:26:36;1.37;;;1.10;;
6414;SDS011;3240;48.790;9.210;2023-04-29T02:29:04;1.40;;;1.00;;
6414;SDS011;3240;48.790;9.210;2023-04-29T02:31:32;1.57;;;1.07;;
6414;SDS011;3240;48.790;9.210;2023-04-29T02:34:01;1.00;;;0.90;;
6414;SDS011;3240;48.790;9.210;2023-04-29T02:36:29;1.27;;;1.10;;
6414;SDS011;3240;48.790;9.210;2023-04-29T02:38:57;2.10;;;1.30;;
6414;SDS011;3240;48.790;9.210;2023-04-29T02:41:26;2.47;;;1.40;;
6414;SDS011;3240;48.790;9.210;2023-04-29T02:43:54;1.47;;;1.00;;
6414;SDS011;3240;48.790;9.210;2023-04-29T02:46:22;1.20;;;1.00;;
6414;SDS011;3240;48.790;9.210;2023-04-29T02:48:51;1.27;;;1.00;;
6414;SDS011;3240;48.790;9.210;2023-04-29T02:51:19;1.40;;;1.30;;
6414;SDS011;3240;48.790;9.210;2023-04-29T02:53:47;1.40;;;1.20;;
6414;SDS011;3240;48.790;9.210;2023-04-29T02:56:16;1.97;;;0.90;;
6414;SDS011;3240;48.790;9.210;2023-04-29T02:58:44;2.30;;;1.00;;
6414;SDS011;3240;48.790;9.210;2023-04-29T03:01:12;1.10;;;0.90;;
6414;SDS011;3240;48.790;9.210;2023-04-29T03:03:41;1.93;;;1.10;;
6414;SDS011;3240;48.790;9.210;2023-04-29T03:06:09;1.73;;;1.20;;
6414;SDS011;3240;48.790;9.210;2023-04-29T03:08:37;0.80;;;0.80;;
6414;SDS011;3240;48.790;9.210;2023-04-29T03:11:06;1.30;;;1.20;;
6414;SDS011;3240;48.790;9.210;2023-04-29T03:13:34;1.80;;;1.10;;
6414;SDS011;3240;48.790;9.210;2023-04-29T03:16:03;2.30;;;1.03;;
6414;SDS011;3240;48.790;9.210;2023-04-29T03:18:32;3.13;;;1.10;;
6414;SDS011;3240;48.790;9.210;2023-04-29T03:21:00;1.87;;;1.33;;
6414;SDS011;3240;48.790;9.210;2023-04-29T03:23:28;1.77;;;1.30;;
6414;SDS011;3240;48.790;9.210;2023-04-29T03:25:57;1.27;;;1.03;;
6414;SDS011;3240;48.790;9.210;2023-04-29T03:28:25;1.03;;;0.93;;
6414;SDS011;3240;48.790;9.210;2023-04-29T03:30:53;1.40;;;1.30;;
6414;SDS011;3240;48.790;9.210;2023-04-29T03:33:22;0.97;;;0.87;;
6414;SDS011;3240;48.790;9.210;2023-04-29T03:35:50;1.27;;;0.97;;
6414;SDS011;3240;48.790;9.210;2023-04-29T03:38:18;1.30;;;1.10;;
6414;SDS011;3240;48.790;9.210;2023-04-29T03:40:47;1.20;;;1.00;;
6414;SDS011;3240;48.790;9.210;2023-04-29T03:43:15;2.62;;;1.70;;
6414;SDS011;3240;48.790;9.210;2023-04-29T03:45:43;4.27;;;2.17;;
6414;SDS011;3240;48.790;9.210;2023-04-29T03:48:12;2.17;;;1.80;;
6414;SDS011;3240;48.790;9.210;2023-04-29T03:50:40;2.53;;;1.90;;
6414;SDS011;3240;48.790;9.210;2023-04-29T03:53:08;3.37;;;2.03;;
6414;SDS011;3240;48.790;9.210;2023-04-29T03:55:37;4.67;;;1.67;;
6414;SDS011;3240;48.790;9.210;2023-04-29T03:58:05;3.10;;;2.03;;
6414;SDS011;3240;48.790;9.210;2023-04-29T04:00:33;1.93;;;1.63;;
6414;SDS011;3240;48.790;9.210;2023-04-29T04:03:02;3.17;;;1.60;;
6414;SDS011;3240;48.790;9.210;2023-04-29T04:05:30;1.97;;;1.37;;
6414;SDS011;3240;48.790;9.210;2023-04-29T04:07:58;2.20;;;1.47;;
6414;SDS011;3240;48.790;9.210;2023-04-29T04:10:27;2.83;;;2.20;;
6414;SDS011;3240;48.790;9.210;2023-04-29T04:12:55;1.57;;;1.43;;
6414;SDS011;3240;48.790;9.210;2023-04-29T04:15:23;2.43;;;1.87;;
6414;SDS011;3240;48.790;9.210;2023-04-29T04:17:52;3.50;;;2.77;;
6414;SDS011;3240;48.790;9.210;2023-04-29T04:20:20;3.60;;;2.50;;
6414;SDS011;3240;48.790;9.210;2023-04-29T04:22:48;1.60;;;1.50;;
6414;SDS011;3240;48.790;9.210;2023-04-29T04:25:17;1.87;;;1.43;;
6414;SDS011;3240;48.790;9.210;2023-04-29T04:27:45;2.70;;;2.23;;
6414;SDS011;3240;48.790;9.210;2023-04-29T04:30:13;2.40;;;2.10;;
6414;SDS011;3240;48.790;9.210;2023-04-29T04:32:41;2.60;;;1.90;;
6414;SDS011;3240;48.790;9.210;2023-04-29T04:35:10;3.83;;;1.80;;
6414;SDS011;3240;48.790;9.210;2023-04-29T04:37:38;1.20;;;1.10;;
6414;SDS011;3240;48.790;9.210;2023-04-29T04:40:07;1.40;;;1.30;;
6414;SDS011;3240;48.790;9.210;2023-04-29T04:42:35;2.17;;;1.97;;
6414;SDS011;3240;48.790;9.210;2023-04-29T04:45:04;1.40;;;1.20;;
6414;SDS011;3240;48.790;9.210;2023-04-29T04:47:32;2.40;;;2.10;;
6414;SDS011;3240;48.790;9.210;2023-04-29T04:50:01;2.80;;;2.03;;
6414;SDS011;3240;48.790;9.210;2023-04-29T04:52:29;3.80;;;1.83;;
6414;SDS011;3240;48.790;9.210;2023-04-29T04:54:57;5.30;;;2.40;;
6414;SDS011;3240;48.790;9.210;2023-04-29T04:57:26;3.10;;;2.00;;
6414;SDS011;3240;48.790;9.210;2023-04-29T04:59:54;2.77;;;1.40;;
6414;SDS011;3240;48.790;9.210;2023-04-29T05:02:22;2.57;;;2.00;;
6414;SDS011;3240;48.790;9.210;2023-04-29T05:04:50;1.67;;;1.47;;
6414;SDS011;3240;48.790;9.210;2023-04-29T05:07:19;3.03;;;2.37;;
6414;SDS011;3240;48.790;9.210;2023-04-29T05:09:47;1.73;;;1.10;;
6414;SDS011;3240;48.790;9.210;2023-04-29T05:12:15;1.90;;;1.30;;
6414;SDS011;3240;48.790;9.210;2023-04-29T05:14:44;1.40;;;1.30;;
6414;SDS011;3240;48.790;9.210;2023-04-29T05:17:12;1.53;;;1.43;;
6414;SDS011;3240;48.790;9.210;2023-04-29T05:19:40;2.13;;;1.50;;
6414;SDS011;3240;48.790;9.210;2023-04-29T05:22:09;1.20;;;1.10;;
6414;SDS011;3240;48.790;9.210;2023-04-29T05:24:37;2.83;;;1.30;;
6414;SDS011;3240;48.790;9.210;2023-04-29T05:27:06;2.50;;;1.30;;
6414;SDS011;3240;48.790;9.210;2023-04-29T05:29:34;2.60;;;1.33;;
6414;SDS011;3240;48.790;9.210;2023-04-29T05:32:02;2.87;;;1.50;;
6414;SDS011;3240;48.790;9.210;2023-04-29T05:34:31;1.93;;;1.73;;
6414;SDS011;3240;48.790;9.210;2023-04-29T05:36:59;1.20;;;1.10;;
6414;SDS011;3240;48.790;9.210;2023-04-29T05:39:27;2.30;;;1.80;;
6414;SDS011;3240;48.790;9.210;2023-04-29T05:41:56;1.30;;;1.20;;
6414;SDS011;3240;48.790;9.210;2023-04-29T05:44:24;1.90;;;1.63;;
6414;SDS011;3240;48.790;9.210;2023-04-29T05:46:52;2.45;;;1.50;;
6414;SDS011;3240;48.790;9.210;2023-04-29T05:49:20;1.90;;;1.50;;
6414;SDS011;3240;48.790;9.210;2023-04-29T05:51:49;2.70;;;1.47;;
6414;SDS011;3240;48.790;9.210;2023-04-29T05:54:17;2.87;;;2.20;;
6414;SDS011;3240;48.790;9.210;2023-04-29T05:56:45;1.33;;;1.23;;
6414;SDS011;3240;48.790;9.210;2023-04-29T05:59:14;1.30;;;1.17;;
6414;SDS011;3240;48.790;9.210;2023-04-29T06:01:42;4.23;;;1.67;;
6414;SDS011;3240;48.790;9.210;2023-04-29T06:04:10;1.60;;;1.50;;
6414;SDS011;3240;48.790;9.210;2023-04-29T06:06:39;1.93;;;1.60;;
6414;SDS011;3240;48.790;9.210;2023-04-29T06:09:07;2.43;;;1.80;;
6414;SDS011;3240;48.790;9.210;2023-04-29T06:11:35;2.97;;;1.90;;
6414;SDS011;3240;48.790;9.210;2023-04-29T06:14:04;2.47;;;1.87;;
6414;SDS011;3240;48.790;9.210;2023-04-29T06:16:32;1.70;;;1.50;;
6414;SDS011;3240;48.790;9.210;2023-04-29T06:19:00;1.60;;;1.30;;
6414;SDS011;3240;48.790;9.210;2023-04-29T06:21:29;3.40;;;1.50;;
6414;SDS011;3240;48.790;9.210;2023-04-29T06:23:57;5.33;;;1.80;;
6414;SDS011;3240;48.790;9.210;2023-04-29T06:26:25;2.12;;;1.75;;
6414;SDS011;3240;48.790;9.210;2023-04-29T06:28:54;1.67;;;1.30;;
6414;SDS011;3240;48.790;9.210;2023-04-29T06:31:22;1.20;;;1.10;;
6414;SDS011;3240;48.790;9.210;2023-04-29T06:33:50;1.30;;;1.20;;
6414;SDS011;3240;48.790;9.210;2023-04-29T06:36:19;1.33;;;1.23;;
6414;SDS011;3240;48.790;9.210;2023-04-29T06:38:47;1.23;;;1.13;;
6414;SDS011;3240;48.790;9.210;2023-04-29T06:41:15;1.90;;;1.80;;
6414;SDS011;3240;48.790;9.210;2023-04-29T06:43:44;3.10;;;1.90;;
6414;SDS011;3240;48.790;9.210;2023-04-29T06:46:12;2.30;;;1.70;;
6414;SDS011;3240;48.790;9.210;2023-04-29T06:48:40;2.20;;;1.90;;
6414;SDS011;3240;48.790;9.210;2023-04-29T06:51:09;2.67;;;1.50;;
6414;SDS011;3240;48.790;9.210;2023-04-29T06:53:37;3.20;;;1.70;;
6414;SDS011;3240;48.790;9.210;2023-04-29T06:56:06;3.50;;;1.60;;
6414;SDS011;3240;48.790;9.210;2023-04-29T06:58:34;1.50;;;1.30;;
6414;SDS011;3240;48.790;9.210;2023-04-29T07:01:02;1.70;;;1.60;;
6414;SDS011;3240;48.790;9.210;2023-04-29T07:03:31;1.50;;;1.37;;
6414;SDS011;3240;48.790;9.210;2023-04-29T07:05:59;1.97;;;1.30;;
6414;SDS011;3240;48.790;9.210;2023-04-29T07:08:27;1.75;;;1.50;;
6414;SDS011;3240;48.790;9.210;2023-04-29T07:10:56;1.30;;;1.20;;
6414;SDS011;3240;48.790;9.210;2023-04-29T07:13:24;1.83;;;1.63;;
6414;SDS011;3240;48.790;9.210;2023-04-29T07:15:52;1.60;;;1.30;;
6414;SDS011;3240;48.790;9.210;2023-04-29T07:18:21;1.90;;;1.30;;
6414;SDS011;3240;48.790;9.210;2023-04-29T07:20:49;1.80;;;1.20;;
6414;SDS011;3240;48.790;9.210;2023-04-29T07:23:17;1.43;;;1.30;;
6414;SDS011;3240;48.790;9.210;2023-04-29T07:25:46;1.53;;;0.90;;
6414;SDS011;3240;48.790;9.210;2023-04-29T07:28:14;1.93;;;1.10;;
6414;SDS011;3240;48.790;9.210;2023-04-29T07:30:42;1.57;;;1.23;;
6414;SDS011;3240;48.790;9.210;2023-04-29T07:33:11;2.37;;;1.13;;
6414;SDS011;3240;48.790;9.210;2023-04-29T07:35:39;1.37;;;1.20;;
6414;SDS011;3240;48.790;9.210;2023-04-29T07:38:07;1.70;;;1.30;;
6414;SDS011;3240;48.790;9.210;2023-04-29T07:40:36;1.20;;;1.10;;
6414;SDS011;3240;48.790;9.210;2023-04-29T07:43:04;1.70;;;1.33;;
6414;SDS011;3240;48.790;9.210;2023-04-29T07:45:32;2.77;;;1.10;;
6414;SDS011;3240;48.790;9.210;2023-04-29T07:48:01;1.30;;;1.10;;
6414;SDS011;3240;48.790;9.210;2023-04-29T07:50:29;2.80;;;1.17;;
6414;SDS011;3240;48.790;9.210;2023-04-29T07:52:57;1.63;;;1.40;;
6414;SDS011;3240;48.790;9.210;2023-04-29T07:55:26;1.40;;;1.30;;
6414;SDS011;3240;48.790;9.210;2023-04-29T07:57:54;1.30;;;1.20;;
6414;SDS011;3240;48.790;9.210;2023-04-29T08:00:22;1.10;;;1.00;;
6414;SDS011;3240;48.790;9.210;2023-04-29T08:02:51;1.53;;;1.43;;
6414;SDS011;3240;48.790;9.210;2023-04-29T08:05:19;1.87;;;1.10;;
6414;SDS011;3240;48.790;9.210;2023-04-29T08:07:48;1.47;;;0.90;;
6414;SDS011;3240;48.790;9.210;2023-04-29T08:10:16;1.00;;;0.90;;
6414;SDS011;3240;48.790;9.210;2023-04-29T08:12:44;1.50;;;1.40;;
6414;SDS011;3240;48.790;9.210;2023-04-29T08:15:13;1.87;;;1.40;;
6414;SDS011;3240;48.790;9.210;2023-04-29T08:17:41;1.47;;;1.37;;
6414;SDS011;3240;48.790;9.210;2023-04-29T08:20:09;2.70;;;1.77;;
6414;SDS011;3240;48.790;9.210;2023-04-29T08:22:38;1.40;;;1.20;;
6414;SDS011;3240;48.790;9.210;2023-04-29T08:25:06;1.00;;;0.80;;
6414;SDS011;3240;48.790;9.210;2023-04-29T08:27:35;1.50;;;1.40;;
6414;SDS011;3240;48.790;9.210;2023-04-29T08:30:03;1.17;;;1.07;;
6414;SDS011;3240;48.790;9.210;2023-04-29T08:32:32;1.20;;;1.10;;
6414;SDS011;3240;48.790;9.210;2023-04-29T08:35:00;1.17;;;0.97;;
6414;SDS011;3240;48.790;9.210;2023-04-29T08:37:28;1.50;;;0.93;;
6414;SDS011;3240;48.790;9.210;2023-04-29T08:39:57;1.10;;;1.00;;
6414;SDS011;3240;48.790;9.210;2023-04-29T08:42:31;1.67;;;1.00;;
6414;SDS011;3240;48.790;9.210;2023-04-29T08:44:57;1.00;;;0.90;;
6414;SDS011;3240;48.790;9.210;2023-04-29T08:47:26;1.10;;;1.00;;
6414;SDS011;3240;48.790;9.210;2023-04-29T08:49:54;1.10;;;1.00;;
6414;SDS011;3240;48.790;9.210;2023-04-29T08:52:22;1.50;;;1.40;;
6414;SDS011;3240;48.790;9.210;2023-04-29T08:54:50;1.00;;;0.90;;
6414;SDS011;3240;48.790;9.210;2023-04-29T08:57:19;0.70;;;0.70;;
6414;SDS011;3240;48.790;9.210;2023-04-29T08:59:47;0.93;;;0.93;;
6414;SDS011;3240;48.790;9.210;2023-04-29T09:02:15;1.50;;;1.00;;
6414;SDS011;3240;48.790;9.210;2023-04-29T09:04:46;1.30;;;1.00;;
6414;SDS011;3240;48.790;9.210;2023-04-29T09:07:14;1.10;;;1.00;;
6414;SDS011;3240;48.790;9.210;2023-04-29T09:09:42;1.00;;;0.90;;
6414;SDS011;3240;48.790;9.210;2023-04-29T09:12:11;2.10;;;1.20;;
6414;SDS011;3240;48.790;9.210;2023-04-29T09:14:39;0.70;;;0.70;;
6414;SDS011;3240;48.790;9.210;2023-04-29T09:17:07;0.90;;;0.70;;
6414;SDS011;3240;48.790;9.210;2023-04-29T09:19:36;1.07;;;0.90;;
6414;SDS011;3240;48.790;9.210;2023-04-29T09:22:04;1.73;;;1.40;;
6414;SDS011;3240;48.790;9.210;2023-04-29T09:24:35;1.00;;;0.83;;
6414;SDS011;3240;48.790;9.210;2023-04-29T09:27:04;1.57;;;1.20;;
6414;SDS011;3240;48.790;9.210;2023-04-29T09:29:32;0.80;;;0.80;;
6414;SDS011;3240;48.790;9.210;2023-04-29T09:32:15;1.77;;;0.70;;
6414;SDS011;3240;48.790;9.210;2023-04-29T09:34:30;1.20;;;0.80;;
6414;SDS011;3240;48.790;9.210;2023-04-29T09:36:57;1.23;;;1.13;;
6414;SDS011;3240;48.790;9.210;2023-04-29T09:39:26;2.23;;;1.03;;
6414;SDS011;3240;48.790;9.210;2023-04-29T09:41:56;0.80;;;0.67;;
6414;SDS011;3240;48.790;9.210;2023-04-29T09:44:24;1.20;;;1.10;;
6414;SDS011;3240;48.790;9.210;2023-04-29T09:46:53;1.30;;;1.13;;
6414;SDS011;3240;48.790;9.210;2023-04-29T09:49:22;1.62;;;1.52;;
6414;SDS011;3240;48.790;9.210;2023-04-29T09:51:54;1.10;;;1.00;;
6414;SDS011;3240;48.790;9.210;2023-04-29T09:54:22;1.60;;;1.03;;
6414;SDS011;3240;48.790;9.210;2023-04-29T09:56:50;1.30;;;0.97;;
6414;SDS011;3240;48.790;9.210;2023-04-29T09:59:18;2.80;;;1.07;;
6414;SDS011;3240;48.790;9.210;2023-04-29T10:01:49;1.40;;;1.27;;
6414;SDS011;3240;48.790;9.210;2023-04-29T10:04:17;1.70;;;1.53;;
6414;SDS011;3240;48.790;9.210;2023-04-29T10:06:45;1.70;;;1.37;;
6414;SDS011;3240;48.790;9.210;2023-04-29T10:09:14;1.00;;;0.90;;
6414;SDS011;3240;48.790;9.210;2023-04-29T10:11:44;1.60;;;1.50;;
6414;SDS011;3240;48.790;9.210;2023-04-29T10:14:14;2.17;;;1.40;;
6414;SDS011;3240;48.790;9.210;2023-04-29T10:16:44;1.50;;;1.30;;
6414;SDS011;3240;48.790;9.210;2023-04-29T10:19:11;1.10;;;1.00;;
6414;SDS011;3240;48.790;9.210;2023-04-29T10:21:39;1.07;;;0.90;;
6414;SDS011;3240;48.790;9.210;2023-04-29T10:24:07;1.50;;;1.33;;
6414;SDS011;3240;48.790;9.210;2023-04-29T10:26:36;1.57;;;1.30;;
6414;SDS011;3240;48.790;9.210;2023-04-29T10:29:04;1.47;;;1.37;;
6414;SDS011;3240;48.790;9.210;2023-04-29T10:31:32;1.40;;;1.30;;
6414;SDS011;3240;48.790;9.210;2023-04-29T10:34:01;3.27;;;1.57;;
6414;SDS011;3240;48.790;9.210;2023-04-29T10:36:29;2.10;;;1.40;;
6414;SDS011;3240;48.790;9.210;2023-04-29T10:38:58;1.70;;;1.40;;
6414;SDS011;3240;48.790;9.210;2023-04-29T10:41:27;2.10;;;1.17;;
6414;SDS011;3240;48.790;9.210;2023-04-29T10:43:54;2.00;;;1.60;;
6414;SDS011;3240;48.790;9.210;2023-04-29T10:46:23;2.87;;;1.60;;
6414;SDS011;3240;48.790;9.210;2023-04-29T10:48:56;2.53;;;1.70;;
6414;SDS011;3240;48.790;9.210;2023-04-29T10:51:27;3.30;;;1.90;;
6414;SDS011;3240;48.790;9.210;2023-04-29T10:54:01;2.00;;;1.33;;
6414;SDS011;3240;48.790;9.210;2023-04-29T10:56:36;1.20;;;1.10;;
6414;SDS011;3240;48.790;9.210;2023-04-29T10:59:03;2.70;;;1.77;;
6414;SDS011;3240;48.790;9.210;2023-04-29T11:01:39;1.63;;;1.53;;
6414;SDS011;3240;48.790;9.210;2023-04-29T11:04:09;1.83;;;1.73;;
6414;SDS011;3240;48.790;9.210;2023-04-29T11:06:39;1.93;;;1.73;;
6414;SDS011;3240;48.790;9.210;2023-04-29T11:09:09;4.83;;;1.63;;
6414;SDS011;3240;48.790;9.210;2023-04-29T11:11:39;2.13;;;1.80;;
6414;SDS011;3240;48.790;9.210;2023-04-29T11:14:07;1.80;;;1.57;;
6414;SDS011;3240;48.790;9.210;2023-04-29T11:16:35;1.73;;;1.10;;
6414;SDS011;3240;48.790;9.210;2023-04-29T11:19:06;1.70;;;1.37;;
6414;SDS011;3240;48.790;9.210;2023-04-29T11:21:35;1.57;;;1.30;;
6414;SDS011;3240;48.790;9.210;2023-04-29T11:24:03;1.47;;;1.20;;
6414;SDS011;3240;48.790;9.210;2023-04-29T11:26:34;1.30;;;1.20;;
6414;SDS011;3240;48.790;9.210;2023-04-29T11:29:04;2.87;;;1.40;;
6414;SDS011;3240;48.790;9.210;2023-04-29T11:31:32;1.77;;;1.43;;
6414;SDS011;3240;48.790;9.210;2023-04-29T11:34:02;1.50;;;1.10;;
6414;SDS011;3240;48.790;9.210;2023-04-29T11:36:30;1.43;;;1.10;;
6414;SDS011;3240;48.790;9.210;2023-04-29T11:38:58;1.90;;;1.40;;
6414;SDS011;3240;48.790;9.210;2023-04-29T11:41:26;2.70;;;1.47;;
6414;SDS011;3240;48.790;9.210;2023-04-29T11:43:54;1.47;;;1.27;;
6414;SDS011;3240;48.790;9.210;2023-04-29T11:46:22;2.10;;;1.40;;
6414;SDS011;3240;48.790;9.210;2023-04-29T11:48:50;4.93;;;1.57;;
6414;SDS011;3240;48.790;9.210;2023-04-29T11:51:19;2.70;;;1.90;;
6414;SDS011;3240;48.790;9.210;2023-04-29T11:53:48;2.37;;;1.67;;
6414;SDS011;3240;48.790;9.210;2023-04-29T11:56:16;1.40;;;1.30;;
6414;SDS011;3240;48.790;9.210;2023-04-29T11:58:45;3.67;;;1.93;;
6414;SDS011;3240;48.790;9.210;2023-04-29T12:01:13;3.23;;;2.17;;
6414;SDS011;3240;48.790;9.210;2023-04-29T12:03:41;4.10;;;3.37;;
6414;SDS011;3240;48.790;9.210;2023-04-29T12:06:10;2.87;;;1.83;;
6414;SDS011;3240;48.790;9.210;2023-04-29T12:08:38;4.03;;;2.27;;
6414;SDS011;3240;48.790;9.210;2023-04-29T12:11:06;4.67;;;2.50;;
6414;SDS011;3240;48.790;9.210;2023-04-29T12:13:35;3.10;;;2.80;;
6414;SDS011;3240;48.790;9.210;2023-04-29T12:16:03;2.17;;;1.87;;
6414;SDS011;3240;48.790;9.210;2023-04-29T12:18:32;3.63;;;3.00;;
6414;SDS011;3240;48.790;9.210;2023-04-29T12:21:00;2.60;;;2.00;;
6414;SDS011;3240;48.790;9.210;2023-04-29T12:23:28;1.87;;;1.77;;
6414;SDS011;3240;48.790;9.210;2023-04-29T12:25:57;4.27;;;2.83;;
6414;SDS011;3240;48.790;9.210;2023-04-29T12:28:25;2.10;;;1.90;;
6414;SDS011;3240;48.790;9.210;2023-04-29T12:30:54;2.60;;;1.83;;
6414;SDS011;3240;48.790;9.210;2023-04-29T12:33:22;11.70;;;2.30;;
6414;SDS011;3240;48.790;9.210;2023-04-29T12:35:50;3.83;;;1.87;;
6414;SDS011;3240;48.790;9.210;2023-04-29T12:38:21;2.33;;;2.00;;
6414;SDS011;3240;48.790;9.210;2023-04-29T12:40:49;3.40;;;2.70;;
6414;SDS011;3240;48.790;9.210;2023-04-29T12:43:18;3.80;;;2.50;;
6414;SDS011;3240;48.790;9.210;2023-04-29T12:45:46;2.63;;;1.43;;
6414;SDS011;3240;48.790;9.210;2023-04-29T12:48:14;3.90;;;2.70;;
6414;SDS011;3240;48.790;9.210;2023-04-29T12:50:43;3.73;;;2.97;;
6414;SDS011;3240;48.790;9.210;2023-04-29T12:53:11;5.10;;;2.90;;
6414;SDS011;3240;48.790;9.210;2023-04-29T12:55:39;3.33;;;2.70;;
6414;SDS011;3240;48.790;9.210;2023-04-29T12:58:08;4.73;;;3.60;;
6414;SDS011;3240;48.790;9.210;2023-04-29T13:00:36;4.27;;;3.87;;
6414;SDS011;3240;48.790;9.210;2023-04-29T13:03:04;4.27;;;3.00;;
6414;SDS011;3240;48.790;9.210;2023-04-29T13:05:33;4.93;;;3.50;;
6414;SDS011;3240;48.790;9.210;2023-04-29T13:08:01;2.70;;;1.97;;
6414;SDS011;3240;48.790;9.210;2023-04-29T13:10:29;3.70;;;3.30;;
6414;SDS011;3240;48.790;9.210;2023-04-29T13:12:58;3.90;;;3.50;;
6414;SDS011;3240;48.790;9.210;2023-04-29T13:15:26;5.60;;;3.33;;
6414;SDS011;3240;48.790;9.210;2023-04-29T13:17:55;3.27;;;2.97;;
6414;SDS011;3240;48.790;9.210;2023-04-29T13:20:23;4.13;;;3.23;;
6414;SDS011;3240;48.790;9.210;2023-04-29T13:22:51;4.60;;;3.73;;
6414;SDS011;3240;48.790;9.210;2023-04-29T13:25:20;3.17;;;2.83;;
6414;SDS011;3240;48.790;9.210;2023-04-29T13:27:48;4.83;;;3.40;;
6414;SDS011;3240;48.790;9.210;2023-04-29T13:30:16;2.60;;;2.40;;
6414;SDS011;3240;48.790;9.210;2023-04-29T13:32:45;4.00;;;3.17;;
6414;SDS011;3240;48.790;9.210;2023-04-29T13:35:13;4.80;;;4.20;;
6414;SDS011;3240;48.790;9.210;2023-04-29T13:37:41;3.93;;;3.43;;
6414;SDS011;3240;48.790;9.210;2023-04-29T13:40:10;3.57;;;3.20;;
6414;SDS011;3240;48.790;9.210;2023-04-29T13:42:38;4.47;;;3.50;;
6414;SDS011;3240;48.790;9.210;2023-04-29T13:45:06;3.70;;;3.33;;
6414;SDS011;3240;48.790;9.210;2023-04-29T13:47:35;2.17;;;1.97;;
6414;SDS011;3240;48.790;9.210;2023-04-29T13:50:03;4.30;;;2.80;;
6414;SDS011;3240;48.790;9.210;2023-04-29T13:52:31;5.63;;;4.03;;
6414;SDS011;3240;48.790;9.210;2023-04-29T13:55:00;2.47;;;2.20;;
6414;SDS011;3240;48.790;9.210;2023-04-29T13:57:28;3.57;;;3.27;;
6414;SDS011;3240;48.790;9.210;2023-04-29T13:59:56;3.50;;;2.53;;
6414;SDS011;3240;48.790;9.210;2023-04-29T14:02:25;3.60;;;3.00;;
6414;SDS011;3240;48.790;9.210;2023-04-29T14:04:53;3.70;;;2.93;;
6414;SDS011;3240;48.790;9.210;2023-04-29T14:07:21;11.20;;;4.23;;
6414;SDS011;3240;48.790;9.210;2023-04-29T14:09:50;6.93;;;4.40;;
6414;SDS011;3240;48.790;9.210;2023-04-29T14:12:18;2.17;;;1.97;;
6414;SDS011;3240;48.790;9.210;2023-04-29T14:14:46;3.20;;;2.67;;
6414;SDS011;3240;48.790;9.210;2023-04-29T14:17:15;4.23;;;3.83;;
6414;SDS011;3240;48.790;9.210;2023-04-29T14:19:43;3.53;;;3.20;;
6414;SDS011;3240;48.790;9.210;2023-04-29T14:22:11;2.30;;;2.00;;
6414;SDS011;3240;48.790;9.210;2023-04-29T14:24:40;5.80;;;4.40;;
6414;SDS011;3240;48.790;9.210;2023-04-29T14:27:08;3.90;;;3.10;;
6414;SDS011;3240;48.790;9.210;2023-04-29T14:29:36;3.85;;;3.37;;
6414;SDS011;3240;48.790;9.210;2023-04-29T14:32:05;3.30;;;3.00;;
6414;SDS011;3240;48.790;9.210;2023-04-29T14:34:33;4.87;;;3.87;;
6414;SDS011;3240;48.790;9.210;2023-04-29T14:37:01;4.03;;;3.07;;
6414;SDS011;3240;48.790;9.210;2023-04-29T14:39:30;4.37;;;3.07;;
6414;SDS011;3240;48.790;9.210;2023-04-29T14:41:58;3.73;;;3.23;;
6414;SDS011;3240;48.790;9.210;2023-04-29T14:44:26;2.30;;;2.10;;
6414;SDS011;3240;48.790;9.210;2023-04-29T14:46:55;2.13;;;1.93;;
6414;SDS011;3240;48.790;9.210;2023-04-29T14:49:23;4.00;;;2.50;;
6414;SDS011;3240;48.790;9.210;2023-04-29T14:51:51;2.90;;;2.23;;
6414;SDS011;3240;48.790;9.210;2023-04-29T14:54:20;3.33;;;2.90;;
6414;SDS011;3240;48.790;9.210;2023-04-29T14:56:48;5.43;;;3.37;;
6414;SDS011;3240;48.790;9.210;2023-04-29T14:59:16;5.03;;;3.27;;
6414;SDS011;3240;48.790;9.210;2023-04-29T15:01:45;3.43;;;3.13;;
6414;SDS011;3240;48.790;9.210;2023-04-29T15:04:13;7.13;;;3.97;;
6414;SDS011;3240;48.790;9.210;2023-04-29T15:06:41;2.13;;;1.93;;
6414;SDS011;3240;48.790;9.210;2023-04-29T15:09:10;3.93;;;2.63;;
6414;SDS011;3240;48.790;9.210;2023-04-29T15:11:38;5.60;;;3.40;;
6414;SDS011;3240;48.790;9.210;2023-04-29T15:14:06;2.97;;;2.00;;
6414;SDS011;3240;48.790;9.210;2023-04-29T15:16:35;5.30;;;3.77;;
6414;SDS011;3240;48.790;9.210;2023-04-29T15:19:03;5.60;;;3.70;;
6414;SDS011;3240;48.790;9.210;2023-04-29T15:21:31;4.43;;;3.70;;
6414;SDS011;3240;48.790;9.210;2023-04-29T15:24:00;4.77;;;3.20;;
6414;SDS011;3240;48.790;9.210;2023-04-29T15:26:28;6.43;;;3.90;;